createdAt,value
2022-09-16T00:02:27.026Z,15.99
2022-09-16T00:04:56.738Z,16.18
2022-09-16T00:07:32.906Z,16.18
2022-09-16T00:10:01.050Z,16.20
2022-09-16T00:12:32.435Z,16.13
2022-09-16T00:15:02.124Z,16.19
2022-09-16T00:17:31.034Z,16.21
2022-09-16T00:20:00.574Z,16.16
2022-09-16T00:22:33.237Z,16.13
2022-09-16T00:25:09.202Z,16.07
2022-09-16T00:27:35.939Z,16.00
2022-09-16T00:30:02.943Z,16.15
2022-09-16T00:32:31.239Z,16.08
2022-09-16T00:34:58.412Z,16.01
2022-09-16T00:37:30.105Z,15.72
2022-09-16T00:39:56.966Z,16.01
2022-09-16T00:42:24.033Z,15.87
2022-09-16T00:44:58.991Z,15.93
2022-09-16T00:47:41.505Z,16.15
2022-09-16T00:50:12.707Z,16.06
2022-09-16T00:52:46.323Z,15.82
2022-09-16T00:55:17.552Z,15.98
2022-09-16T00:57:46.145Z,15.99
2022-09-16T01:00:13.350Z,15.94
2022-09-16T01:02:47.543Z,16.04
2022-09-16T01:05:17.099Z,16.03
2022-09-16T01:07:46.229Z,15.95
2022-09-16T01:10:23.761Z,15.80
2022-09-16T01:13:16.357Z,15.71
2022-09-16T01:15:49.553Z,15.88
2022-09-16T01:18:27.336Z,15.69
2022-09-16T01:21:20.599Z,15.79
2022-09-16T01:24:34.410Z,15.75
2022-09-16T01:27:34.390Z,15.73
2022-09-16T01:30:27.444Z,15.83
2022-09-16T01:33:12.282Z,15.68
2022-09-16T01:35:53.455Z,15.73
2022-09-16T01:38:38.793Z,15.72
2022-09-16T01:41:18.399Z,15.66
2022-09-16T01:44:07.240Z,15.86
2022-09-16T01:46:58.787Z,15.78
2022-09-16T01:49:46.720Z,15.66
2022-09-16T01:52:34.275Z,15.89
2022-09-16T01:55:28.583Z,15.78
2022-09-16T01:58:41.243Z,15.82
2022-09-16T02:04:21.204Z,15.95
2022-09-16T02:06:53.067Z,15.89
2022-09-16T02:09:31.437Z,15.77
2022-09-16T02:12:05.888Z,15.86
2022-09-16T02:14:38.123Z,15.73
2022-09-16T02:17:09.261Z,15.83
2022-09-16T02:19:44.267Z,15.80
2022-09-16T02:22:20.354Z,15.69
2022-09-16T02:24:51.439Z,15.69
2022-09-16T02:27:30.156Z,15.88
2022-09-16T02:30:14.874Z,15.77
2022-09-16T02:33:06.658Z,15.92
2022-09-16T02:35:45.495Z,15.77
2022-09-16T02:38:24.832Z,15.93
2022-09-16T02:40:56.653Z,15.92
2022-09-16T02:43:28.434Z,15.96
2022-09-16T02:46:07.828Z,15.79
2022-09-16T02:48:47.405Z,15.78
2022-09-16T02:51:23.146Z,15.94
2022-09-16T02:54:01.413Z,15.86
2022-09-16T02:56:32.161Z,15.83
2022-09-16T02:59:00.104Z,15.76
2022-09-16T03:01:30.544Z,15.78
2022-09-16T03:04:02.847Z,15.69
2022-09-16T03:06:30.571Z,15.68
2022-09-16T03:09:07.955Z,15.80
2022-09-16T03:12:03.979Z,15.95
2022-09-16T03:14:50.549Z,15.80
2022-09-16T03:17:33.368Z,15.97
2022-09-16T03:20:15.313Z,15.99
2022-09-16T03:22:51.601Z,16.03
2022-09-16T03:25:33.996Z,15.96
2022-09-16T03:28:11.352Z,15.95
2022-09-16T03:30:47.677Z,15.74
2022-09-16T03:33:26.117Z,15.63
2022-09-16T03:36:04.795Z,15.71
2022-09-16T03:38:36.928Z,15.58
2022-09-16T03:41:11.645Z,15.55
2022-09-16T03:43:51.817Z,15.51
2022-09-16T03:46:53.928Z,15.68
2022-09-16T03:49:20.827Z,15.56
2022-09-16T03:51:53.845Z,15.67
2022-09-16T03:54:47.558Z,15.67
2022-09-16T03:57:22.210Z,15.62
2022-09-16T04:00:01.453Z,15.63
2022-09-16T04:02:52.709Z,15.46
2022-09-16T04:05:34.084Z,15.56
2022-09-16T04:08:07.314Z,15.35
2022-09-16T04:10:42.446Z,15.38
2022-09-16T04:13:20.413Z,15.29
2022-09-16T04:15:53.848Z,15.26
2022-09-16T04:18:49.706Z,14.99
2022-09-16T04:21:26.456Z,15.07
2022-09-16T04:24:10.738Z,14.82
2022-09-16T04:29:53.646Z,14.58
2022-09-16T04:32:29.376Z,14.58
2022-09-16T04:34:58.083Z,14.71
2022-09-16T04:37:30.612Z,14.76
2022-09-16T04:39:59.885Z,14.97
2022-09-16T04:42:32.427Z,15.05
2022-09-16T04:45:07.835Z,15.02
2022-09-16T04:47:34.442Z,15.18
2022-09-16T04:50:01.107Z,15.22
2022-09-16T04:52:31.750Z,15.21
2022-09-16T04:55:00.497Z,15.28
2022-09-16T04:57:30.790Z,15.25
2022-09-16T05:00:00.920Z,15.25
2022-09-16T05:02:44.859Z,15.21
2022-09-16T05:05:21.981Z,15.10
2022-09-16T05:07:57.170Z,15.14
2022-09-16T05:10:26.928Z,15.04
2022-09-16T05:12:54.303Z,14.84
2022-09-16T05:15:24.285Z,14.94
2022-09-16T05:18:07.650Z,15.05
2022-09-16T05:20:45.212Z,15.04
2022-09-16T05:23:17.319Z,15.09
2022-09-16T05:25:44.320Z,15.19
2022-09-16T05:28:25.945Z,15.21
2022-09-16T05:31:13.264Z,15.13
2022-09-16T05:34:07.973Z,15.22
2022-09-16T05:39:35.776Z,15.45
2022-09-16T05:42:27.426Z,15.48
2022-09-16T05:44:56.434Z,15.51
2022-09-16T05:50:57.487Z,15.65
2022-09-16T06:09:55.782Z,15.84
2022-09-16T06:15:03.385Z,15.96
2022-09-16T06:17:30.588Z,16.07
2022-09-16T06:19:57.168Z,16.29
2022-09-16T06:22:23.706Z,16.05
2022-09-16T06:24:51.691Z,16.17
2022-09-16T06:27:19.655Z,16.18
2022-09-16T06:29:46.248Z,16.42
2022-09-16T06:32:12.811Z,16.52
2022-09-16T06:34:39.331Z,16.44
2022-09-16T06:37:05.858Z,16.39
2022-09-16T06:39:32.797Z,16.39
2022-09-16T06:41:59.289Z,16.52
2022-09-16T06:44:27.311Z,16.59
2022-09-16T06:46:53.838Z,16.70
2022-09-16T06:49:20.663Z,16.58
2022-09-16T06:51:49.750Z,16.65
2022-09-16T06:54:16.499Z,16.64
2022-09-16T06:56:45.589Z,16.80
2022-09-16T06:59:12.176Z,16.82
2022-09-16T07:09:43.372Z,17.11
2022-09-16T07:11:39.435Z,17.45
2022-09-16T07:14:33.880Z,17.78
2022-09-16T07:17:50.854Z,17.91
2022-09-16T07:24:30.721Z,18.00
2022-09-16T07:31:05.615Z,18.27
2022-09-16T07:33:44.199Z,18.61
2022-09-16T07:39:33.554Z,18.64
2022-09-16T07:42:20.715Z,18.57
2022-09-16T07:45:02.362Z,18.37
2022-09-16T07:47:42.284Z,18.05
2022-09-16T07:50:14.325Z,17.56
2022-09-16T07:53:18.931Z,18.09
2022-09-16T07:58:49.779Z,19.10
2022-09-16T08:01:27.838Z,19.48
2022-09-16T08:03:56.143Z,20.01
2022-09-16T08:06:26.491Z,20.77
2022-09-16T08:09:02.528Z,20.63
2022-09-16T08:11:44.907Z,20.31
2022-09-16T08:14:11.875Z,20.73
2022-09-16T08:16:38.860Z,22.22
2022-09-16T08:19:08.534Z,22.57
2022-09-16T08:21:35.141Z,22.19
2022-09-16T08:24:03.303Z,22.01
2022-09-16T08:26:30.240Z,21.95
2022-09-16T08:29:08.248Z,21.25
2022-09-16T08:31:36.492Z,20.81
2022-09-16T08:34:03.796Z,21.10
2022-09-16T08:36:30.511Z,21.58
2022-09-16T08:38:57.681Z,21.66
2022-09-16T08:41:49.103Z,21.66
2022-09-16T08:44:23.629Z,21.87
2022-09-16T08:46:53.062Z,21.69
2022-09-16T08:49:31.922Z,21.90
2022-09-16T08:52:03.632Z,22.09
2022-09-16T08:54:36.095Z,22.16
2022-09-16T08:57:10.897Z,21.99
2022-09-16T08:59:42.928Z,22.14
2022-09-16T09:02:29.223Z,21.57
2022-09-16T09:04:56.282Z,21.89
2022-09-16T09:07:32.729Z,22.06
2022-09-16T09:10:13.733Z,21.68
2022-09-16T09:12:49.629Z,21.93
2022-09-16T09:15:35.121Z,21.99
2022-09-16T09:18:16.381Z,22.21
2022-09-16T09:20:50.852Z,21.72
2022-09-16T09:23:33.792Z,21.89
2022-09-16T09:26:08.257Z,21.77
2022-09-16T09:28:53.169Z,22.35
2022-09-16T09:31:29.689Z,22.65
2022-09-16T09:34:04.144Z,22.53
2022-09-16T09:36:49.853Z,23.00
2022-09-16T09:39:49.183Z,23.04
2022-09-16T09:42:24.066Z,23.38
2022-09-16T09:45:01.337Z,22.92
2022-09-16T09:47:35.681Z,22.35
2022-09-16T09:50:14.527Z,21.67
2022-09-16T09:52:47.764Z,21.19
2022-09-16T09:55:17.796Z,20.72
2022-09-16T09:57:59.983Z,20.99
2022-09-16T10:00:29.443Z,20.98
2022-09-16T10:03:04.669Z,20.68
2022-09-16T10:05:35.156Z,20.63
2022-09-16T10:08:10.003Z,20.99
2022-09-16T10:10:46.260Z,21.29
2022-09-16T10:13:17.543Z,21.36
2022-09-16T10:15:46.650Z,22.06
2022-09-16T10:18:20.088Z,22.44
2022-09-16T10:20:57.362Z,22.45
2022-09-16T10:23:29.637Z,22.98
2022-09-16T10:26:16.537Z,23.35
2022-09-16T10:28:54.465Z,23.14
2022-09-16T10:31:24.379Z,22.91
2022-09-16T10:33:51.580Z,23.37
2022-09-16T10:36:22.585Z,23.36
2022-09-16T10:38:53.449Z,22.92
2022-09-16T10:41:25.281Z,23.13
2022-09-16T10:43:57.616Z,22.99
2022-09-16T10:46:34.104Z,22.37
2022-09-16T10:49:12.024Z,21.72
2022-09-16T10:51:38.895Z,21.39
2022-09-16T10:54:22.836Z,21.55
2022-09-16T10:56:56.140Z,21.92
2022-09-16T10:59:25.218Z,21.95
2022-09-16T11:02:16.308Z,21.62
2022-09-16T11:05:02.181Z,21.09
2022-09-16T11:07:42.155Z,21.84
2022-09-16T11:10:17.791Z,22.45
2022-09-16T11:13:28.616Z,22.86
2022-09-16T11:16:13.025Z,23.00
2022-09-16T11:18:57.599Z,22.73
2022-09-16T11:22:00.273Z,22.43
2022-09-16T11:24:50.626Z,22.69
2022-09-16T11:27:28.596Z,22.48
2022-09-16T11:30:07.384Z,21.83
2022-09-16T11:32:53.414Z,21.43
2022-09-16T11:35:42.454Z,20.91
2022-09-16T11:38:18.607Z,20.78
2022-09-16T11:40:47.417Z,20.51
2022-09-16T11:43:32.361Z,19.97
2022-09-16T11:46:07.632Z,19.50
2022-09-16T11:48:47.506Z,18.57
2022-09-16T11:51:53.356Z,15.23
2022-09-16T11:54:36.452Z,15.21
2022-09-16T11:57:09.832Z,15.36
2022-09-16T11:59:45.595Z,15.22
2022-09-16T12:02:24.384Z,15.30
2022-09-16T12:04:57.812Z,16.11
2022-09-16T12:07:31.237Z,16.35
2022-09-16T12:10:03.394Z,17.21
2022-09-16T12:12:36.660Z,17.58
2022-09-16T12:15:07.214Z,17.74
2022-09-16T12:17:37.902Z,17.94
2022-09-16T12:20:13.836Z,17.62
2022-09-16T12:22:48.984Z,17.57
2022-09-16T12:25:21.764Z,17.32
2022-09-16T12:27:53.497Z,17.49
2022-09-16T12:30:22.277Z,17.45
2022-09-16T12:32:59.786Z,17.45
2022-09-16T12:38:15.667Z,17.48
2022-09-16T12:40:59.099Z,17.60
2022-09-16T12:43:49.614Z,17.63
2022-09-16T12:46:43.607Z,17.47
2022-09-16T12:49:41.995Z,17.64
2022-09-16T12:52:22.460Z,17.80
2022-09-16T12:55:22.897Z,17.87
2022-09-16T12:58:06.584Z,17.95
2022-09-16T13:00:39.472Z,17.94
2022-09-16T13:03:15.739Z,17.61
2022-09-16T13:05:46.378Z,18.02
2022-09-16T13:08:21.951Z,18.39
2022-09-16T13:11:19.281Z,18.88
2022-09-16T13:13:48.862Z,19.00
2022-09-16T13:16:28.249Z,18.90
2022-09-16T13:19:23.980Z,19.03
2022-09-16T13:21:57.352Z,19.42
2022-09-16T13:24:37.326Z,19.36
2022-09-16T13:27:27.036Z,19.23
2022-09-16T13:30:13.677Z,19.27
2022-09-16T13:32:44.612Z,19.37
2022-09-16T13:35:35.518Z,19.76
2022-09-16T13:38:21.474Z,20.12
2022-09-16T13:40:57.513Z,20.09
2022-09-16T13:43:54.921Z,20.08
2022-09-16T13:46:30.962Z,20.09
2022-09-16T13:49:07.698Z,19.98
2022-09-16T13:51:40.757Z,20.00
2022-09-16T13:54:20.713Z,20.51
2022-09-16T13:57:01.448Z,20.36
2022-09-16T13:59:43.960Z,20.18
2022-09-16T14:02:17.852Z,19.94
2022-09-16T14:05:07.876Z,19.84
2022-09-16T14:07:46.356Z,19.59
2022-09-16T14:10:19.717Z,19.76
2022-09-16T14:12:59.568Z,19.71
2022-09-16T14:15:29.968Z,19.52
2022-09-16T14:18:01.344Z,19.60
2022-09-16T14:20:28.967Z,18.76
2022-09-16T14:23:06.556Z,18.24
2022-09-16T14:25:37.807Z,18.24
2022-09-16T14:28:18.342Z,18.17
2022-09-16T14:30:49.583Z,18.17
2022-09-16T14:33:19.764Z,17.57
2022-09-16T14:35:48.242Z,17.56
2022-09-16T14:38:41.566Z,17.32
2022-09-16T14:41:07.947Z,17.19
2022-09-16T14:43:38.194Z,17.13
2022-09-16T14:46:08.468Z,17.11
2022-09-16T14:48:40.668Z,17.26
2022-09-16T14:51:22.173Z,17.39
2022-09-16T14:54:11.685Z,17.61
2022-09-16T14:56:39.679Z,17.56
2022-09-16T14:59:10.731Z,17.35
2022-09-16T15:01:40.556Z,17.41
2022-09-16T15:04:15.236Z,17.21
2022-09-16T15:06:50.254Z,17.03
2022-09-16T15:09:25.318Z,17.33
2022-09-16T15:11:55.271Z,17.24
2022-09-16T15:14:22.205Z,17.29
2022-09-16T15:16:55.722Z,17.26
2022-09-16T15:19:26.857Z,17.15
2022-09-16T15:21:54.244Z,17.37
2022-09-16T15:24:24.375Z,17.35
2022-09-16T15:26:51.152Z,16.94
2022-09-16T15:29:28.731Z,17.10
2022-09-16T15:32:07.217Z,17.01
2022-09-16T15:34:37.762Z,17.22
2022-09-16T15:37:31.160Z,17.38
2022-09-16T15:40:18.697Z,17.20
2022-09-16T15:42:46.183Z,17.26
2022-09-16T15:45:17.329Z,17.20
2022-09-16T15:48:09.082Z,17.36
2022-09-16T15:50:44.470Z,17.34
2022-09-16T15:53:16.139Z,17.41
2022-09-16T15:55:52.537Z,17.33
2022-09-16T15:58:24.556Z,17.23
2022-09-16T16:00:59.397Z,17.08
2022-09-16T16:03:31.962Z,17.07
2022-09-16T16:05:58.906Z,17.03
2022-09-16T16:08:44.907Z,16.96
2022-09-16T16:11:13.668Z,16.94
2022-09-16T16:13:40.738Z,16.96
2022-09-16T16:16:08.495Z,17.17
2022-09-16T16:18:37.982Z,17.13
2022-09-16T16:21:05.789Z,16.92
2022-09-16T16:23:32.605Z,16.87
2022-09-16T16:26:02.036Z,16.95
2022-09-16T16:28:29.246Z,16.76
2022-09-16T16:31:11.839Z,16.79
2022-09-16T16:33:44.537Z,16.33
2022-09-16T16:36:14.483Z,16.46
2022-09-16T16:38:41.296Z,16.46
2022-09-16T16:41:08.757Z,16.38
2022-09-16T16:43:37.342Z,16.26
2022-09-16T16:46:05.342Z,16.33
2022-09-16T16:48:33.199Z,16.24
2022-09-16T16:51:12.746Z,16.06
2022-09-16T16:53:40.045Z,16.13
2022-09-16T16:56:15.817Z,16.21
2022-09-16T16:58:49.024Z,15.82
2022-09-16T17:01:20.519Z,15.97
2022-09-16T17:03:50.480Z,15.84
2022-09-16T17:06:29.112Z,15.76
2022-09-16T17:08:56.256Z,15.97
2022-09-16T17:11:43.128Z,16.09
2022-09-16T17:14:10.131Z,15.99
2022-09-16T17:16:46.898Z,16.09
2022-09-16T17:19:17.751Z,16.01
2022-09-16T17:21:47.425Z,15.89
2022-09-16T17:24:17.455Z,15.76
2022-09-16T17:26:49.145Z,15.61
2022-09-16T17:29:17.792Z,15.60
2022-09-16T17:31:46.310Z,15.56
2022-09-16T17:34:15.226Z,15.58
2022-09-16T17:36:45.639Z,15.29
2022-09-16T17:39:13.627Z,15.42
2022-09-16T17:41:40.542Z,15.34
2022-09-16T17:44:08.526Z,15.34
2022-09-16T17:46:35.800Z,15.18
2022-09-16T17:49:04.656Z,15.14
2022-09-16T17:51:32.709Z,15.00
2022-09-16T17:54:01.478Z,14.97
2022-09-16T17:56:31.581Z,15.03
2022-09-16T17:58:58.286Z,14.90
2022-09-16T18:01:26.194Z,14.70
2022-09-16T18:03:55.778Z,14.71
2022-09-16T18:06:25.033Z,14.65
2022-09-16T18:08:51.905Z,14.47
2022-09-16T18:11:21.208Z,14.58
2022-09-16T18:13:54.290Z,14.55
2022-09-16T18:16:27.396Z,14.65
2022-09-16T18:18:56.510Z,14.69
2022-09-16T18:21:24.052Z,14.64
2022-09-16T18:23:54.489Z,14.63
2022-09-16T18:26:23.079Z,14.60
2022-09-16T18:29:09.051Z,14.56
2022-09-16T18:31:36.714Z,14.27
2022-09-16T18:34:04.021Z,14.37
2022-09-16T18:36:31.206Z,14.21
2022-09-16T18:38:58.861Z,14.33
2022-09-16T18:41:28.933Z,14.27
2022-09-16T18:43:57.619Z,14.25
2022-09-16T18:46:30.317Z,14.01
2022-09-16T18:49:00.594Z,14.10
2022-09-16T18:51:29.612Z,13.95
2022-09-16T18:53:58.406Z,14.10
2022-09-16T18:56:29.082Z,14.15
2022-09-16T18:59:20.326Z,14.17
2022-09-16T19:01:48.524Z,14.15
2022-09-16T19:04:18.025Z,13.97
2022-09-16T19:06:46.204Z,13.80
2022-09-16T19:09:15.021Z,13.98
2022-09-16T19:11:43.535Z,13.93
2022-09-16T19:14:13.082Z,13.97
2022-09-16T19:16:40.030Z,14.08
2022-09-16T19:19:08.467Z,14.04
2022-09-16T19:21:35.836Z,14.15
2022-09-16T19:24:04.388Z,14.00
2022-09-16T19:26:33.211Z,13.92
2022-09-16T19:29:01.365Z,13.89
2022-09-16T19:31:28.872Z,13.77
2022-09-16T19:33:56.087Z,13.70
2022-09-16T19:36:24.755Z,13.68
2022-09-16T19:38:52.319Z,13.74
2022-09-16T19:41:20.524Z,13.78
2022-09-16T19:43:47.478Z,13.69
2022-09-16T19:46:17.437Z,13.72
2022-09-16T19:48:46.552Z,13.54
2022-09-16T19:51:15.275Z,13.44
2022-09-16T19:53:43.474Z,13.42
2022-09-16T19:56:12.382Z,13.41
2022-09-16T19:58:39.737Z,13.34
2022-09-16T20:01:10.359Z,13.41
2022-09-16T20:03:40.532Z,13.48
2022-09-16T20:06:09.580Z,13.44
2022-09-16T20:08:37.905Z,13.50
2022-09-16T20:11:06.099Z,13.36
2022-09-16T20:13:39.649Z,13.41
2022-09-16T20:16:10.678Z,13.24
2022-09-16T20:18:44.433Z,13.07
2022-09-16T20:21:14.767Z,13.22
2022-09-16T20:23:42.284Z,13.33
2022-09-16T20:26:19.261Z,13.58
2022-09-16T20:28:52.741Z,13.44
2022-09-16T20:31:24.305Z,13.33
2022-09-16T20:33:55.017Z,13.05
2022-09-16T20:36:23.452Z,13.40
2022-09-16T20:38:51.162Z,13.43
2022-09-16T20:41:19.718Z,13.47
2022-09-16T20:43:46.754Z,13.54
2022-09-16T20:46:15.913Z,13.59
2022-09-16T20:48:43.594Z,13.54
2022-09-16T20:51:13.840Z,13.61
2022-09-16T20:53:41.044Z,13.51
2022-09-16T20:56:12.209Z,13.55
2022-09-16T20:58:43.747Z,13.30
2022-09-16T21:01:13.072Z,13.41
2022-09-16T21:03:40.027Z,13.58
2022-09-16T21:06:11.509Z,13.47
2022-09-16T21:08:40.176Z,13.67
2022-09-16T21:11:10.352Z,13.68
2022-09-16T21:13:37.809Z,13.46
2022-09-16T21:16:05.126Z,13.48
2022-09-16T21:18:31.678Z,13.52
2022-09-16T21:21:00.120Z,13.43
2022-09-16T21:23:26.959Z,13.51
2022-09-16T21:25:57.787Z,13.46
2022-09-16T21:28:24.715Z,13.53
2022-09-16T21:31:00.195Z,13.64
2022-09-16T21:33:27.031Z,13.50
2022-09-16T21:35:53.819Z,13.61
2022-09-16T21:38:48.058Z,13.69
2022-09-16T21:41:17.544Z,13.81
2022-09-16T21:43:45.978Z,13.73
2022-09-16T21:46:13.869Z,13.78
2022-09-16T21:48:40.692Z,13.74
2022-09-16T21:51:11.412Z,13.59
2022-09-16T21:53:45.391Z,13.45
2022-09-16T21:56:13.646Z,13.45
2022-09-16T21:58:47.282Z,13.45
2022-09-16T22:01:21.407Z,13.29
2022-09-16T22:03:52.784Z,13.50
2022-09-16T22:06:24.485Z,13.64
2022-09-16T22:08:51.727Z,13.66
2022-09-16T22:11:20.308Z,13.65
2022-09-16T22:13:48.394Z,13.69
2022-09-16T22:16:20.840Z,13.53
2022-09-16T22:18:47.767Z,13.44
2022-09-16T22:21:14.693Z,13.45
2022-09-16T22:23:41.601Z,13.63
2022-09-16T22:26:10.066Z,13.69
2022-09-16T22:28:37.763Z,13.55
2022-09-16T22:31:08.778Z,13.69
2022-09-16T22:33:40.567Z,13.68
2022-09-16T22:36:12.562Z,13.64
2022-09-16T22:38:40.164Z,13.58
2022-09-16T22:41:19.507Z,13.59
2022-09-16T22:43:55.739Z,13.44
2022-09-16T22:46:42.386Z,13.53
2022-09-16T22:49:17.449Z,13.72
2022-09-16T22:51:46.903Z,13.68
2022-09-16T22:54:15.871Z,13.72
2022-09-16T22:56:43.779Z,13.59
2022-09-16T22:59:18.811Z,13.72
2022-09-16T23:01:52.490Z,13.66
2022-09-16T23:04:24.195Z,13.66
2022-09-16T23:06:57.675Z,13.69
2022-09-16T23:09:31.301Z,13.63
2022-09-16T23:12:01.158Z,13.70
2022-09-16T23:14:31.907Z,13.61
2022-09-16T23:17:06.401Z,13.53
2022-09-16T23:19:33.189Z,13.32
2022-09-16T23:22:00.103Z,13.51
2022-09-16T23:24:26.607Z,13.45
2022-09-16T23:26:53.384Z,13.54
2022-09-16T23:29:22.084Z,13.67
2022-09-16T23:31:48.681Z,13.69
2022-09-16T23:34:18.841Z,13.71
2022-09-16T23:36:46.095Z,13.64
2022-09-16T23:39:14.213Z,13.66
2022-09-16T23:41:43.430Z,13.53
2022-09-16T23:44:12.507Z,13.64
2022-09-16T23:46:39.411Z,13.70
2022-09-16T23:49:06.029Z,13.68
2022-09-16T23:51:33.985Z,13.66
2022-09-16T23:54:01.138Z,13.63
2022-09-16T23:56:28.087Z,13.66
2022-09-16T23:58:58.820Z,13.67
